sensor_id;sensor_type;location;lat;lon;timestamp;P1;durP1;ratioP1;P2;durP2;ratioP2
25301;SDS011;13243;50.888;4.724;2023-05-10T00:00:15;17.13;;;6.22;;
25301;SDS011;13243;50.888;4.724;2023-05-10T00:05:17;14.88;;;6.43;;
25301;SDS011;13243;50.888;4.724;2023-05-10T00:10:19;16.55;;;6.72;;
25301;SDS011;13243;50.888;4.724;2023-05-10T00:15:21;16.02;;;5.75;;
25301;SDS011;13243;50.888;4.724;2023-05-10T00:20:23;11.38;;;6.18;;
25301;SDS011;13243;50.888;4.724;2023-05-10T00:25:25;17.60;;;6.20;;
25301;SDS011;13243;50.888;4.724;2023-05-10T00:30:27;10.65;;;6.03;;
25301;SDS011;13243;50.888;4.724;2023-05-10T00:35:29;13.05;;;6.13;;
25301;SDS011;13243;50.888;4.724;2023-05-10T00:40:30;18.45;;;6.93;;
25301;SDS011;13243;50.888;4.724;2023-05-10T00:45:32;17.55;;;6.63;;
25301;SDS011;13243;50.888;4.724;2023-05-10T00:50:35;18.08;;;7.07;;
25301;SDS011;13243;50.888;4.724;2023-05-10T00:55:37;13.73;;;6.72;;
25301;SDS011;13243;50.888;4.724;2023-05-10T01:00:39;19.25;;;7.68;;
25301;SDS011;13243;50.888;4.724;2023-05-10T01:05:43;13.05;;;7.03;;
25301;SDS011;13243;50.888;4.724;2023-05-10T01:10:45;16.27;;;6.85;;
25301;SDS011;13243;50.888;4.724;2023-05-10T01:15:47;19.25;;;7.32;;
25301;SDS011;13243;50.888;4.724;2023-05-10T01:20:55;15.20;;;7.63;;
25301;SDS011;13243;50.888;4.724;2023-05-10T01:27:00;17.73;;;7.13;;
25301;SDS011;13243;50.888;4.724;2023-05-10T01:32:02;14.60;;;8.15;;
25301;SDS011;13243;50.888;4.724;2023-05-10T01:37:45;18.63;;;8.38;;
25301;SDS011;13243;50.888;4.724;2023-05-10T01:42:54;18.45;;;8.38;;
25301;SDS011;13243;50.888;4.724;2023-05-10T01:53:09;19.92;;;9.30;;
25301;SDS011;13243;50.888;4.724;2023-05-10T01:58:14;21.55;;;9.45;;
25301;SDS011;13243;50.888;4.724;2023-05-10T02:03:23;20.88;;;10.38;;
25301;SDS011;13243;50.888;4.724;2023-05-10T02:08:27;21.13;;;9.10;;
25301;SDS011;13243;50.888;4.724;2023-05-10T02:13:30;15.30;;;8.15;;
25301;SDS011;13243;50.888;4.724;2023-05-10T02:18:35;25.02;;;9.63;;
25301;SDS011;13243;50.888;4.724;2023-05-10T02:23:37;19.80;;;10.60;;
25301;SDS011;13243;50.888;4.724;2023-05-10T02:28:40;19.75;;;10.70;;
25301;SDS011;13243;50.888;4.724;2023-05-10T02:33:44;19.98;;;9.73;;
25301;SDS011;13243;50.888;4.724;2023-05-10T02:38:47;19.02;;;10.10;;
25301;SDS011;13243;50.888;4.724;2023-05-10T02:43:51;20.02;;;10.55;;
25301;SDS011;13243;50.888;4.724;2023-05-10T02:48:57;20.27;;;9.88;;
25301;SDS011;13243;50.888;4.724;2023-05-10T02:54:01;21.75;;;10.75;;
25301;SDS011;13243;50.888;4.724;2023-05-10T02:59:11;23.20;;;9.73;;
25301;SDS011;13243;50.888;4.724;2023-05-10T03:04:13;26.50;;;10.95;;
25301;SDS011;13243;50.888;4.724;2023-05-10T03:09:15;23.92;;;10.18;;
25301;SDS011;13243;50.888;4.724;2023-05-10T03:14:21;26.42;;;11.68;;
25301;SDS011;13243;50.888;4.724;2023-05-10T03:24:33;21.02;;;10.02;;
25301;SDS011;13243;50.888;4.724;2023-05-10T03:29:38;22.88;;;9.52;;
25301;SDS011;13243;50.888;4.724;2023-05-10T03:34:41;22.80;;;11.30;;
25301;SDS011;13243;50.888;4.724;2023-05-10T03:39:44;27.40;;;10.20;;
25301;SDS011;13243;50.888;4.724;2023-05-10T03:44:46;21.27;;;9.75;;
25301;SDS011;13243;50.888;4.724;2023-05-10T03:49:50;18.58;;;8.52;;
25301;SDS011;13243;50.888;4.724;2023-05-10T03:54:52;14.23;;;7.43;;
25301;SDS011;13243;50.888;4.724;2023-05-10T03:59:54;15.00;;;7.85;;
25301;SDS011;13243;50.888;4.724;2023-05-10T04:04:56;20.80;;;8.52;;
25301;SDS011;13243;50.888;4.724;2023-05-10T04:09:58;25.98;;;10.02;;
25301;SDS011;13243;50.888;4.724;2023-05-10T04:14:59;29.13;;;12.05;;
25301;SDS011;13243;50.888;4.724;2023-05-10T04:20:01;28.40;;;12.50;;
25301;SDS011;13243;50.888;4.724;2023-05-10T04:25:06;25.90;;;12.63;;
25301;SDS011;13243;50.888;4.724;2023-05-10T04:30:08;24.50;;;11.98;;
25301;SDS011;13243;50.888;4.724;2023-05-10T04:35:10;27.10;;;12.13;;
25301;SDS011;13243;50.888;4.724;2023-05-10T04:40:12;27.10;;;13.18;;
25301;SDS011;13243;50.888;4.724;2023-05-10T04:45:14;27.38;;;13.10;;
25301;SDS011;13243;50.888;4.724;2023-05-10T04:50:16;35.08;;;14.27;;
25301;SDS011;13243;50.888;4.724;2023-05-10T04:55:18;29.58;;;12.90;;
25301;SDS011;13243;50.888;4.724;2023-05-10T05:00:20;29.52;;;14.23;;
25301;SDS011;13243;50.888;4.724;2023-05-10T05:05:22;33.15;;;14.55;;
25301;SDS011;13243;50.888;4.724;2023-05-10T05:10:24;30.33;;;13.45;;
25301;SDS011;13243;50.888;4.724;2023-05-10T05:15:26;38.72;;;15.45;;
25301;SDS011;13243;50.888;4.724;2023-05-10T05:20:31;32.13;;;15.02;;
25301;SDS011;13243;50.888;4.724;2023-05-10T05:25:34;35.03;;;15.50;;
25301;SDS011;13243;50.888;4.724;2023-05-10T05:30:36;36.25;;;15.85;;
25301;SDS011;13243;50.888;4.724;2023-05-10T05:35:38;35.85;;;16.27;;
25301;SDS011;13243;50.888;4.724;2023-05-10T05:40:40;38.72;;;16.15;;
25301;SDS011;13243;50.888;4.724;2023-05-10T05:45:42;40.42;;;16.65;;
25301;SDS011;13243;50.888;4.724;2023-05-10T05:50:44;37.53;;;16.42;;
25301;SDS011;13243;50.888;4.724;2023-05-10T06:00:55;39.65;;;15.35;;
25301;SDS011;13243;50.888;4.724;2023-05-10T06:05:57;37.78;;;16.63;;
25301;SDS011;13243;50.888;4.724;2023-05-10T06:11:02;34.30;;;15.10;;
25301;SDS011;13243;50.888;4.724;2023-05-10T06:16:05;38.63;;;14.57;;
25301;SDS011;13243;50.888;4.724;2023-05-10T06:21:07;32.70;;;14.13;;
25301;SDS011;13243;50.888;4.724;2023-05-10T06:26:09;32.33;;;13.93;;
25301;SDS011;13243;50.888;4.724;2023-05-10T06:31:11;33.80;;;15.70;;
25301;SDS011;13243;50.888;4.724;2023-05-10T06:36:13;37.60;;;17.02;;
25301;SDS011;13243;50.888;4.724;2023-05-10T06:41:15;31.40;;;15.35;;
25301;SDS011;13243;50.888;4.724;2023-05-10T06:46:18;37.00;;;16.42;;
25301;SDS011;13243;50.888;4.724;2023-05-10T06:51:20;35.55;;;15.10;;
25301;SDS011;13243;50.888;4.724;2023-05-10T06:56:22;37.47;;;15.02;;
25301;SDS011;13243;50.888;4.724;2023-05-10T07:01:24;34.95;;;13.27;;
25301;SDS011;13243;50.888;4.724;2023-05-10T07:06:26;25.77;;;12.15;;
25301;SDS011;13243;50.888;4.724;2023-05-10T07:11:34;15.35;;;7.60;;
25301;SDS011;13243;50.888;4.724;2023-05-10T07:16:36;13.88;;;7.32;;
25301;SDS011;13243;50.888;4.724;2023-05-10T07:21:38;13.82;;;6.22;;
25301;SDS011;13243;50.888;4.724;2023-05-10T07:26:41;11.93;;;5.18;;
25301;SDS011;13243;50.888;4.724;2023-05-10T07:31:43;11.10;;;5.53;;
25301;SDS011;13243;50.888;4.724;2023-05-10T07:36:45;13.77;;;6.07;;
25301;SDS011;13243;50.888;4.724;2023-05-10T07:41:47;9.88;;;5.22;;
25301;SDS011;13243;50.888;4.724;2023-05-10T07:46:49;9.60;;;4.60;;
25301;SDS011;13243;50.888;4.724;2023-05-10T07:51:51;6.20;;;3.65;;
25301;SDS011;13243;50.888;4.724;2023-05-10T07:56:53;8.77;;;3.95;;
25301;SDS011;13243;50.888;4.724;2023-05-10T08:01:54;6.85;;;4.15;;
25301;SDS011;13243;50.888;4.724;2023-05-10T08:06:57;10.32;;;4.38;;
25301;SDS011;13243;50.888;4.724;2023-05-10T08:11:59;12.38;;;4.90;;
25301;SDS011;13243;50.888;4.724;2023-05-10T08:17:01;23.80;;;8.27;;
25301;SDS011;13243;50.888;4.724;2023-05-10T08:22:03;17.45;;;7.72;;
25301;SDS011;13243;50.888;4.724;2023-05-10T08:27:06;24.17;;;7.63;;
25301;SDS011;13243;50.888;4.724;2023-05-10T08:32:09;16.10;;;7.78;;
25301;SDS011;13243;50.888;4.724;2023-05-10T08:37:11;17.65;;;8.25;;
25301;SDS011;13243;50.888;4.724;2023-05-10T08:42:16;17.70;;;7.82;;
25301;SDS011;13243;50.888;4.724;2023-05-10T08:47:23;17.80;;;7.05;;
25301;SDS011;13243;50.888;4.724;2023-05-10T09:05:18;13.70;;;6.43;;
25301;SDS011;13243;50.888;4.724;2023-05-10T09:10:20;13.07;;;6.28;;
25301;SDS011;13243;50.888;4.724;2023-05-10T09:15:22;15.15;;;6.03;;
25301;SDS011;13243;50.888;4.724;2023-05-10T09:20:24;13.60;;;5.80;;
25301;SDS011;13243;50.888;4.724;2023-05-10T09:25:26;14.52;;;6.40;;
25301;SDS011;13243;50.888;4.724;2023-05-10T09:30:29;10.27;;;5.22;;
25301;SDS011;13243;50.888;4.724;2023-05-10T09:35:32;12.65;;;5.60;;
25301;SDS011;13243;50.888;4.724;2023-05-10T09:40:34;10.52;;;5.70;;
25301;SDS011;13243;50.888;4.724;2023-05-10T09:45:36;11.13;;;5.20;;
25301;SDS011;13243;50.888;4.724;2023-05-10T09:50:39;12.80;;;5.55;;
25301;SDS011;13243;50.888;4.724;2023-05-10T09:55:42;8.25;;;3.95;;
25301;SDS011;13243;50.888;4.724;2023-05-10T10:00:46;8.68;;;4.32;;
25301;SDS011;13243;50.888;4.724;2023-05-10T10:05:52;8.18;;;3.53;;
25301;SDS011;13243;50.888;4.724;2023-05-10T10:10:57;5.85;;;3.05;;
25301;SDS011;13243;50.888;4.724;2023-05-10T10:15:59;5.47;;;3.08;;
25301;SDS011;13243;50.888;4.724;2023-05-10T10:21:01;6.82;;;2.90;;
25301;SDS011;13243;50.888;4.724;2023-05-10T10:26:03;4.97;;;3.00;;
25301;SDS011;13243;50.888;4.724;2023-05-10T10:31:15;4.45;;;2.55;;
25301;SDS011;13243;50.888;4.724;2023-05-10T10:36:19;12.85;;;3.10;;
25301;SDS011;13243;50.888;4.724;2023-05-10T10:46:31;3.40;;;2.35;;
25301;SDS011;13243;50.888;4.724;2023-05-10T10:51:38;2.95;;;1.88;;
25301;SDS011;13243;50.888;4.724;2023-05-10T10:56:41;5.28;;;2.00;;
25301;SDS011;13243;50.888;4.724;2023-05-10T11:01:45;2.95;;;1.90;;
25301;SDS011;13243;50.888;4.724;2023-05-10T11:06:53;3.72;;;2.40;;
25301;SDS011;13243;50.888;4.724;2023-05-10T11:12:18;3.85;;;2.15;;
25301;SDS011;13243;50.888;4.724;2023-05-10T11:17:38;2.15;;;1.67;;
25301;SDS011;13243;50.888;4.724;2023-05-10T11:22:49;2.42;;;1.80;;
25301;SDS011;13243;50.888;4.724;2023-05-10T11:27:52;2.75;;;1.73;;
25301;SDS011;13243;50.888;4.724;2023-05-10T11:32:54;2.50;;;1.60;;
25301;SDS011;13243;50.888;4.724;2023-05-10T11:37:57;1.40;;;1.20;;
25301;SDS011;13243;50.888;4.724;2023-05-10T11:42:58;2.25;;;1.00;;
25301;SDS011;13243;50.888;4.724;2023-05-10T11:48:01;1.30;;;1.20;;
25301;SDS011;13243;50.888;4.724;2023-05-10T11:53:04;1.42;;;1.20;;
25301;SDS011;13243;50.888;4.724;2023-05-10T11:58:05;2.15;;;1.55;;
25301;SDS011;13243;50.888;4.724;2023-05-10T12:03:07;2.40;;;1.67;;
25301;SDS011;13243;50.888;4.724;2023-05-10T12:08:10;3.25;;;1.80;;
25301;SDS011;13243;50.888;4.724;2023-05-10T12:13:13;5.10;;;2.30;;
25301;SDS011;13243;50.888;4.724;2023-05-10T12:18:22;2.85;;;2.10;;
25301;SDS011;13243;50.888;4.724;2023-05-10T12:23:25;3.75;;;2.20;;
25301;SDS011;13243;50.888;4.724;2023-05-10T12:28:29;3.55;;;2.33;;
25301;SDS011;13243;50.888;4.724;2023-05-10T12:33:38;2.65;;;2.15;;
25301;SDS011;13243;50.888;4.724;2023-05-10T12:38:44;3.85;;;2.72;;
25301;SDS011;13243;50.888;4.724;2023-05-10T12:43:49;3.75;;;2.40;;
25301;SDS011;13243;50.888;4.724;2023-05-10T12:48:52;3.20;;;2.40;;
25301;SDS011;13243;50.888;4.724;2023-05-10T12:54:09;2.90;;;2.17;;
25301;SDS011;13243;50.888;4.724;2023-05-10T12:59:11;2.80;;;2.50;;
25301;SDS011;13243;50.888;4.724;2023-05-10T13:04:13;4.78;;;2.42;;
25301;SDS011;13243;50.888;4.724;2023-05-10T13:09:14;5.63;;;2.10;;
25301;SDS011;13243;50.888;4.724;2023-05-10T13:14:16;5.13;;;3.00;;
25301;SDS011;13243;50.888;4.724;2023-05-10T13:19:20;3.10;;;1.75;;
25301;SDS011;13243;50.888;4.724;2023-05-10T13:24:22;3.92;;;2.78;;
25301;SDS011;13243;50.888;4.724;2023-05-10T13:29:24;2.95;;;2.20;;
25301;SDS011;13243;50.888;4.724;2023-05-10T13:34:26;4.03;;;2.47;;
25301;SDS011;13243;50.888;4.724;2023-05-10T13:39:28;4.03;;;2.25;;
25301;SDS011;13243;50.888;4.724;2023-05-10T13:44:34;7.78;;;2.90;;
25301;SDS011;13243;50.888;4.724;2023-05-10T13:49:37;2.83;;;2.13;;
25301;SDS011;13243;50.888;4.724;2023-05-10T13:54:38;2.95;;;1.77;;
25301;SDS011;13243;50.888;4.724;2023-05-10T13:59:40;3.75;;;2.50;;
25301;SDS011;13243;50.888;4.724;2023-05-10T14:04:42;3.38;;;2.55;;
25301;SDS011;13243;50.888;4.724;2023-05-10T14:09:44;4.43;;;2.42;;
25301;SDS011;13243;50.888;4.724;2023-05-10T14:14:46;3.00;;;1.90;;
25301;SDS011;13243;50.888;4.724;2023-05-10T14:19:48;2.92;;;2.50;;
25301;SDS011;13243;50.888;4.724;2023-05-10T14:24:49;7.55;;;2.30;;
25301;SDS011;13243;50.888;4.724;2023-05-10T14:29:51;5.07;;;2.63;;
25301;SDS011;13243;50.888;4.724;2023-05-10T14:34:54;3.53;;;2.50;;
25301;SDS011;13243;50.888;4.724;2023-05-10T14:39:56;4.15;;;2.85;;
25301;SDS011;13243;50.888;4.724;2023-05-10T14:44:58;4.28;;;2.92;;
25301;SDS011;13243;50.888;4.724;2023-05-10T14:50:00;5.30;;;2.78;;
25301;SDS011;13243;50.888;4.724;2023-05-10T14:55:03;4.40;;;2.97;;
25301;SDS011;13243;50.888;4.724;2023-05-10T15:00:05;5.53;;;3.10;;
25301;SDS011;13243;50.888;4.724;2023-05-10T15:05:08;6.22;;;2.97;;
25301;SDS011;13243;50.888;4.724;2023-05-10T15:10:10;7.68;;;3.58;;
25301;SDS011;13243;50.888;4.724;2023-05-10T15:15:12;4.25;;;3.25;;
25301;SDS011;13243;50.888;4.724;2023-05-10T15:20:14;4.90;;;3.30;;
25301;SDS011;13243;50.888;4.724;2023-05-10T15:25:16;7.72;;;4.32;;
25301;SDS011;13243;50.888;4.724;2023-05-10T15:30:18;13.77;;;5.47;;
25301;SDS011;13243;50.888;4.724;2023-05-10T15:35:20;9.63;;;4.72;;
25301;SDS011;13243;50.888;4.724;2023-05-10T15:40:22;12.45;;;5.32;;
25301;SDS011;13243;50.888;4.724;2023-05-10T15:45:24;8.80;;;4.85;;
25301;SDS011;13243;50.888;4.724;2023-05-10T15:50:26;14.48;;;7.28;;
25301;SDS011;13243;50.888;4.724;2023-05-10T15:55:28;11.25;;;6.78;;
25301;SDS011;13243;50.888;4.724;2023-05-10T16:00:30;11.20;;;5.15;;
25301;SDS011;13243;50.888;4.724;2023-05-10T16:05:31;14.52;;;5.22;;
25301;SDS011;13243;50.888;4.724;2023-05-10T16:10:33;11.00;;;5.00;;
25301;SDS011;13243;50.888;4.724;2023-05-10T16:15:35;10.30;;;4.40;;
25301;SDS011;13243;50.888;4.724;2023-05-10T16:20:37;11.35;;;4.47;;
25301;SDS011;13243;50.888;4.724;2023-05-10T16:25:39;8.07;;;3.83;;
25301;SDS011;13243;50.888;4.724;2023-05-10T16:30:41;8.23;;;4.53;;
25301;SDS011;13243;50.888;4.724;2023-05-10T16:35:43;10.02;;;4.20;;
25301;SDS011;13243;50.888;4.724;2023-05-10T16:40:45;14.68;;;4.97;;
25301;SDS011;13243;50.888;4.724;2023-05-10T16:45:47;9.45;;;4.50;;
25301;SDS011;13243;50.888;4.724;2023-05-10T16:50:48;11.23;;;4.43;;
25301;SDS011;13243;50.888;4.724;2023-05-10T16:55:50;15.25;;;5.57;;
25301;SDS011;13243;50.888;4.724;2023-05-10T17:00:52;12.90;;;4.63;;
25301;SDS011;13243;50.888;4.724;2023-05-10T17:05:54;8.60;;;4.25;;
25301;SDS011;13243;50.888;4.724;2023-05-10T17:10:59;11.88;;;4.70;;
25301;SDS011;13243;50.888;4.724;2023-05-10T17:16:02;14.77;;;5.95;;
25301;SDS011;13243;50.888;4.724;2023-05-10T17:21:04;13.82;;;5.38;;
25301;SDS011;13243;50.888;4.724;2023-05-10T17:26:06;10.27;;;5.00;;
25301;SDS011;13243;50.888;4.724;2023-05-10T17:31:08;12.95;;;5.78;;
25301;SDS011;13243;50.888;4.724;2023-05-10T17:36:10;15.65;;;6.75;;
25301;SDS011;13243;50.888;4.724;2023-05-10T17:41:12;17.92;;;6.75;;
25301;SDS011;13243;50.888;4.724;2023-05-10T17:46:14;16.60;;;7.38;;
25301;SDS011;13243;50.888;4.724;2023-05-10T17:51:17;14.90;;;7.25;;
25301;SDS011;13243;50.888;4.724;2023-05-10T17:56:20;19.33;;;7.53;;
25301;SDS011;13243;50.888;4.724;2023-05-10T18:01:22;18.63;;;8.10;;
25301;SDS011;13243;50.888;4.724;2023-05-10T18:06:24;13.43;;;7.38;;
25301;SDS011;13243;50.888;4.724;2023-05-10T18:11:26;16.42;;;7.88;;
25301;SDS011;13243;50.888;4.724;2023-05-10T18:16:28;12.07;;;7.10;;
25301;SDS011;13243;50.888;4.724;2023-05-10T18:21:30;16.55;;;6.82;;
25301;SDS011;13243;50.888;4.724;2023-05-10T18:26:33;14.43;;;7.30;;
25301;SDS011;13243;50.888;4.724;2023-05-10T18:31:35;14.95;;;6.95;;
25301;SDS011;13243;50.888;4.724;2023-05-10T18:36:37;13.93;;;7.03;;
25301;SDS011;13243;50.888;4.724;2023-05-10T18:41:40;15.77;;;7.35;;
25301;SDS011;13243;50.888;4.724;2023-05-10T18:46:42;16.20;;;7.97;;
25301;SDS011;13243;50.888;4.724;2023-05-10T18:51:43;17.95;;;7.95;;
25301;SDS011;13243;50.888;4.724;2023-05-10T18:56:45;19.40;;;8.10;;
25301;SDS011;13243;50.888;4.724;2023-05-10T19:01:47;13.10;;;7.38;;
25301;SDS011;13243;50.888;4.724;2023-05-10T19:06:51;16.15;;;7.13;;
25301;SDS011;13243;50.888;4.724;2023-05-10T19:11:53;19.17;;;8.10;;
25301;SDS011;13243;50.888;4.724;2023-05-10T19:16:55;19.27;;;8.13;;
25301;SDS011;13243;50.888;4.724;2023-05-10T19:21:57;13.57;;;8.48;;
25301;SDS011;13243;50.888;4.724;2023-05-10T19:26:59;13.75;;;7.65;;
25301;SDS011;13243;50.888;4.724;2023-05-10T19:32:02;18.80;;;9.68;;
25301;SDS011;13243;50.888;4.724;2023-05-10T19:37:04;15.95;;;8.00;;
25301;SDS011;13243;50.888;4.724;2023-05-10T19:42:06;15.70;;;8.43;;
25301;SDS011;13243;50.888;4.724;2023-05-10T19:47:08;15.18;;;8.38;;
25301;SDS011;13243;50.888;4.724;2023-05-10T19:52:12;19.15;;;8.88;;
25301;SDS011;13243;50.888;4.724;2023-05-10T19:57:14;20.48;;;9.18;;
25301;SDS011;13243;50.888;4.724;2023-05-10T20:02:16;15.35;;;8.20;;
25301;SDS011;13243;50.888;4.724;2023-05-10T20:07:18;16.70;;;8.20;;
25301;SDS011;13243;50.888;4.724;2023-05-10T20:12:20;20.98;;;9.20;;
25301;SDS011;13243;50.888;4.724;2023-05-10T20:17:22;17.48;;;9.15;;
25301;SDS011;13243;50.888;4.724;2023-05-10T20:22:24;21.95;;;9.18;;
25301;SDS011;13243;50.888;4.724;2023-05-10T20:27:26;20.17;;;9.23;;
25301;SDS011;13243;50.888;4.724;2023-05-10T20:32:28;19.27;;;8.98;;
25301;SDS011;13243;50.888;4.724;2023-05-10T20:37:30;21.25;;;9.30;;
25301;SDS011;13243;50.888;4.724;2023-05-10T20:42:32;22.38;;;9.18;;
25301;SDS011;13243;50.888;4.724;2023-05-10T20:47:34;21.50;;;10.02;;
25301;SDS011;13243;50.888;4.724;2023-05-10T20:52:36;24.23;;;10.30;;
25301;SDS011;13243;50.888;4.724;2023-05-10T20:57:39;20.75;;;9.75;;
25301;SDS011;13243;50.888;4.724;2023-05-10T21:02:41;24.17;;;9.98;;
25301;SDS011;13243;50.888;4.724;2023-05-10T21:07:45;26.77;;;12.02;;
25301;SDS011;13243;50.888;4.724;2023-05-10T21:12:47;20.75;;;10.95;;
25301;SDS011;13243;50.888;4.724;2023-05-10T21:17:49;29.20;;;9.88;;
25301;SDS011;13243;50.888;4.724;2023-05-10T21:22:51;20.02;;;8.35;;
25301;SDS011;13243;50.888;4.724;2023-05-10T21:27:53;23.25;;;8.40;;
25301;SDS011;13243;50.888;4.724;2023-05-10T21:32:54;22.55;;;6.63;;
25301;SDS011;13243;50.888;4.724;2023-05-10T21:38:00;18.85;;;6.13;;
25301;SDS011;13243;50.888;4.724;2023-05-10T21:43:02;15.57;;;5.95;;
25301;SDS011;13243;50.888;4.724;2023-05-10T21:48:03;13.27;;;6.65;;
25301;SDS011;13243;50.888;4.724;2023-05-10T21:53:05;16.00;;;6.20;;
25301;SDS011;13243;50.888;4.724;2023-05-10T21:58:07;17.58;;;6.38;;
25301;SDS011;13243;50.888;4.724;2023-05-10T22:03:09;17.83;;;6.80;;
25301;SDS011;13243;50.888;4.724;2023-05-10T22:08:11;16.20;;;6.75;;
25301;SDS011;13243;50.888;4.724;2023-05-10T22:13:13;20.63;;;6.80;;
25301;SDS011;13243;50.888;4.724;2023-05-10T22:18:15;14.63;;;6.43;;
25301;SDS011;13243;50.888;4.724;2023-05-10T22:23:17;18.38;;;6.85;;
25301;SDS011;13243;50.888;4.724;2023-05-10T22:28:18;18.55;;;7.28;;
25301;SDS011;13243;50.888;4.724;2023-05-10T22:33:20;16.40;;;6.40;;
25301;SDS011;13243;50.888;4.724;2023-05-10T22:38:22;14.82;;;6.18;;
25301;SDS011;13243;50.888;4.724;2023-05-10T22:43:24;14.98;;;5.70;;
25301;SDS011;13243;50.888;4.724;2023-05-10T22:48:26;12.98;;;6.40;;
25301;SDS011;13243;50.888;4.724;2023-05-10T22:53:29;20.88;;;7.20;;
25301;SDS011;13243;50.888;4.724;2023-05-10T22:58:30;12.43;;;6.30;;
25301;SDS011;13243;50.888;4.724;2023-05-10T23:03:32;22.00;;;7.10;;
25301;SDS011;13243;50.888;4.724;2023-05-10T23:08:34;17.13;;;7.13;;
25301;SDS011;13243;50.888;4.724;2023-05-10T23:13:36;17.10;;;7.78;;
25301;SDS011;13243;50.888;4.724;2023-05-10T23:18:38;12.50;;;6.47;;
25301;SDS011;13243;50.888;4.724;2023-05-10T23:23:40;14.95;;;6.90;;
25301;SDS011;13243;50.888;4.724;2023-05-10T23:28:42;22.17;;;8.52;;
25301;SDS011;13243;50.888;4.724;2023-05-10T23:33:44;23.92;;;9.18;;
25301;SDS011;13243;50.888;4.724;2023-05-10T23:38:45;32.53;;;11.93;;
25301;SDS011;13243;50.888;4.724;2023-05-10T23:43:47;25.00;;;10.30;;
25301;SDS011;13243;50.888;4.724;2023-05-10T23:48:49;26.23;;;10.73;;
25301;SDS011;13243;50.888;4.724;2023-05-10T23:53:51;20.20;;;10.38;;
25301;SDS011;13243;50.888;4.724;2023-05-10T23:58:53;25.65;;;10.90;;
